Weather at Vøjstrup Glider Field

Public forecast

Using degrees Celsius for public forecast. Weather courtesy of forecast.io.

Closest aviation weather report (METAR) to Vøjstrup Glider Field

Report is more than 6 hours old.

Closest report is Odense Airport, 14.4 nm (26.7 km) NNE.

2022/11/14 14:50 (retrieved 2 years ago)

EKOD 141450Z 12010KT 7000 OVC009 09/08 Q1017

Closest aviation forecast (TAF) to Vøjstrup Glider Field

Forecast is more than 12 hours old.

Closest forecast is Skrydstrup Air Base, 32.1 nm (59.5 km) W.

2023/02/22 18:31 (retrieved 1 year ago)

TAF EKSP 221702Z 2218/2318 12008KT 8000 SCT008 BKN030 TEMPO 2218/2302 1800 RADZ BR BKN003 BECMG 2302/2304 0100 FG RADZ VV001 TEMPO 2304/2311 2000 BR BKN003 BECMG 2311/2313 9999 NSW SCT020